createdAt,value
2023-11-05T00:01:08.207Z,94.52
2023-11-05T00:04:08.839Z,95.58
2023-11-05T00:06:37.198Z,94.72
2023-11-05T00:09:05.194Z,91.87
2023-11-05T00:11:33.133Z,93.56
2023-11-05T00:14:01.061Z,93.75
2023-11-05T00:16:29.033Z,93.33
2023-11-05T00:18:56.939Z,90.37
2023-11-05T00:21:26.307Z,91.10
2023-11-05T00:23:54.161Z,88.58
2023-11-05T00:26:21.991Z,88.91
2023-11-05T00:28:49.840Z,89.60
2023-11-05T00:31:17.860Z,87.90
2023-11-05T00:33:45.978Z,88.87
2023-11-05T00:36:14.238Z,89.36
2023-11-05T00:38:43.566Z,89.30
2023-11-05T00:41:11.415Z,88.31
2023-11-05T00:43:39.263Z,87.60
2023-11-05T00:46:07.670Z,87.37
2023-11-05T00:48:35.576Z,87.13
2023-11-05T00:51:04.417Z,86.45
2023-11-05T00:53:50.108Z,87.33
2023-11-05T00:56:18.026Z,86.41
2023-11-05T00:58:46.764Z,86.63
2023-11-05T01:01:14.829Z,85.75
2023-11-05T01:03:42.819Z,87.00
2023-11-05T01:06:10.781Z,86.62
2023-11-05T01:08:38.675Z,86.64
2023-11-05T01:11:08.265Z,87.44
2023-11-05T01:13:36.188Z,88.57
2023-11-05T01:16:04.176Z,88.14
2023-11-05T01:18:32.140Z,87.88
2023-11-05T01:21:00.006Z,87.44
2023-11-05T01:23:27.863Z,86.82
2023-11-05T01:25:55.739Z,88.58
2023-11-05T01:28:25.013Z,90.46
2023-11-05T01:30:52.874Z,92.41
2023-11-05T01:33:20.858Z,90.56
2023-11-05T01:35:54.575Z,91.64
2023-11-05T01:38:22.601Z,91.15
2023-11-05T01:40:50.605Z,91.66
2023-11-05T01:43:18.535Z,91.92
2023-11-05T01:45:47.852Z,92.53
2023-11-05T01:48:15.884Z,94.42
2023-11-05T01:50:44.253Z,94.47
2023-11-05T01:53:12.122Z,93.79
2023-11-05T01:55:40.219Z,94.06
2023-11-05T01:58:08.314Z,93.78
2023-11-05T02:00:36.235Z,96.32
2023-11-05T02:03:05.656Z,96.36
2023-11-05T02:05:33.603Z,96.25
2023-11-05T02:08:01.645Z,96.06
2023-11-05T02:10:29.732Z,95.10
2023-11-05T02:12:58.383Z,96.32
2023-11-05T02:15:26.842Z,94.95
2023-11-05T02:17:54.824Z,92.56
2023-11-05T02:20:24.440Z,92.85
2023-11-05T02:22:54.491Z,94.04
2023-11-05T02:25:23.835Z,94.76
2023-11-05T02:28:29.023Z,95.86
2023-11-05T02:30:57.205Z,93.35
2023-11-05T02:33:25.203Z,93.61
2023-11-05T02:35:54.071Z,95.10
2023-11-05T02:38:21.935Z,97.08
2023-11-05T02:40:51.207Z,98.58
2023-11-05T02:43:19.171Z,97.58
2023-11-05T02:45:46.997Z,97.81
2023-11-05T02:48:17.102Z,98.32
2023-11-05T02:50:45.388Z,98.65
2023-11-05T02:53:16.620Z,99.24
2023-11-05T02:55:44.651Z,98.86
2023-11-05T02:58:15.153Z,100.00
2023-11-05T03:00:43.218Z,100.00
2023-11-05T03:03:30.085Z,100.00
2023-11-05T03:05:57.955Z,98.42
2023-11-05T03:08:25.876Z,98.88
2023-11-05T03:10:55.115Z,99.28
2023-11-05T03:13:24.411Z,100.00
2023-11-05T03:15:52.258Z,99.38
2023-11-05T03:18:20.320Z,93.75
2023-11-05T03:20:48.208Z,93.85
2023-11-05T03:23:16.137Z,93.76
2023-11-05T03:25:44.061Z,95.10
2023-11-05T03:28:12.085Z,92.98
2023-11-05T03:30:41.311Z,94.08
2023-11-05T03:33:08.303Z,93.95
2023-11-05T03:35:36.285Z,94.85
2023-11-05T03:38:04.237Z,93.65
2023-11-05T03:40:32.165Z,96.73
2023-11-05T03:43:00.065Z,99.23
2023-11-05T03:45:27.929Z,100.00
2023-11-05T03:47:57.221Z,100.00
2023-11-05T03:50:25.022Z,100.00
2023-11-05T03:52:52.868Z,100.00
2023-11-05T03:55:19.880Z,100.00
2023-11-05T03:57:47.808Z,100.00
2023-11-05T04:00:16.574Z,100.00
2023-11-05T04:02:44.497Z,100.00
2023-11-05T04:05:15.892Z,100.00
2023-11-05T04:07:44.054Z,100.00
2023-11-05T04:10:12.230Z,100.00
2023-11-05T04:12:40.254Z,100.00
2023-11-05T04:15:09.115Z,100.00
2023-11-05T04:17:37.234Z,100.00
2023-11-05T04:20:06.587Z,100.00
2023-11-05T04:22:36.688Z,100.00
2023-11-05T04:25:04.921Z,100.00
2023-11-05T04:27:32.788Z,100.00
2023-11-05T04:30:00.616Z,100.00
2023-11-05T04:32:28.492Z,100.00
2023-11-05T04:34:56.373Z,100.00
2023-11-05T04:37:24.278Z,100.00
2023-11-05T04:39:53.513Z,100.00
2023-11-05T04:42:21.308Z,100.00
2023-11-05T04:44:49.145Z,100.00
2023-11-05T04:47:23.755Z,100.00
2023-11-05T04:49:52.025Z,100.00
2023-11-05T04:52:20.687Z,100.00
2023-11-05T04:54:49.280Z,100.00
2023-11-05T04:57:19.901Z,100.00
2023-11-05T04:59:47.684Z,100.00
2023-11-05T05:02:15.498Z,100.00
2023-11-05T05:04:43.545Z,100.00
2023-11-05T05:07:11.544Z,100.00
2023-11-05T05:09:39.390Z,100.00
2023-11-05T05:12:08.337Z,100.00
2023-11-05T05:14:37.630Z,100.00
2023-11-05T05:17:06.427Z,100.00
2023-11-05T05:19:34.352Z,100.00
2023-11-05T05:22:03.625Z,100.00
2023-11-05T05:24:31.635Z,100.00
2023-11-05T05:26:59.517Z,100.00
2023-11-05T05:29:27.406Z,100.00
2023-11-05T05:31:56.695Z,100.00
2023-11-05T05:34:24.548Z,100.00
2023-11-05T05:36:52.327Z,100.00
2023-11-05T05:39:23.242Z,100.00
2023-11-05T05:41:51.057Z,100.00
2023-11-05T05:44:21.577Z,100.00
2023-11-05T05:46:50.948Z,100.00
2023-11-05T05:49:20.150Z,100.00
2023-11-05T05:51:47.998Z,100.00
2023-11-05T05:54:15.888Z,100.00
2023-11-05T05:56:43.673Z,100.00
2023-11-05T05:59:11.768Z,100.00
2023-11-05T06:01:39.669Z,100.00
2023-11-05T06:04:09.208Z,100.00
2023-11-05T06:06:38.722Z,100.00
2023-11-05T06:09:07.785Z,100.00
2023-11-05T06:11:35.593Z,100.00
2023-11-05T06:14:03.590Z,100.00
2023-11-05T06:16:31.403Z,100.00
2023-11-05T06:18:59.293Z,100.00
2023-11-05T06:21:27.228Z,100.00
2023-11-05T06:23:56.452Z,100.00
2023-11-05T06:26:25.494Z,100.00
2023-11-05T06:28:53.357Z,100.00
2023-11-05T06:31:21.185Z,100.00
2023-11-05T06:33:49.244Z,100.00
2023-11-05T06:36:17.607Z,100.00
2023-11-05T06:38:45.396Z,100.00
2023-11-05T06:41:14.635Z,100.00
2023-11-05T06:43:42.492Z,100.00
2023-11-05T06:46:10.424Z,100.00
2023-11-05T06:48:45.296Z,100.00
2023-11-05T06:51:13.208Z,100.00
2023-11-05T06:53:41.958Z,100.00
2023-11-05T06:56:12.062Z,100.00
2023-11-05T06:58:41.683Z,100.00
2023-11-05T07:01:09.502Z,100.00
2023-11-05T07:03:37.417Z,100.00
2023-11-05T07:06:06.146Z,100.00
2023-11-05T07:08:41.062Z,100.00
2023-11-05T07:11:10.605Z,100.00
2023-11-05T07:13:38.666Z,100.00
2023-11-05T07:16:13.894Z,100.00
2023-11-05T07:18:42.559Z,100.00
2023-11-05T07:21:12.591Z,100.00
2023-11-05T07:23:40.526Z,100.00
2023-11-05T07:26:08.358Z,100.00
2023-11-05T07:28:36.225Z,100.00
2023-11-05T07:31:04.107Z,100.00
2023-11-05T07:33:33.465Z,100.00
2023-11-05T07:36:02.413Z,100.00
2023-11-05T07:38:30.542Z,100.00
2023-11-05T07:40:58.960Z,100.00
2023-11-05T07:43:26.878Z,100.00
2023-11-05T07:45:54.669Z,100.00
2023-11-05T07:48:23.231Z,100.00
2023-11-05T07:50:53.277Z,100.00
2023-11-05T07:53:21.514Z,100.00
2023-11-05T07:55:49.623Z,100.00
2023-11-05T07:58:17.610Z,100.00
2023-11-05T08:00:47.821Z,100.00
2023-11-05T08:03:16.004Z,100.00
2023-11-05T08:05:44.481Z,97.75
2023-11-05T08:08:13.793Z,95.97
2023-11-05T08:10:41.643Z,94.17
2023-11-05T08:13:09.494Z,93.84
2023-11-05T08:15:37.317Z,90.95
2023-11-05T08:18:05.302Z,93.27
2023-11-05T08:20:33.930Z,89.18
2023-11-05T08:23:01.865Z,91.56
2023-11-05T08:25:31.185Z,88.14
2023-11-05T08:27:59.977Z,89.15
2023-11-05T08:30:29.869Z,86.64
2023-11-05T08:32:57.687Z,88.09
2023-11-05T08:35:25.673Z,84.73
2023-11-05T08:37:54.976Z,84.83
2023-11-05T08:40:22.882Z,82.79
2023-11-05T08:42:52.575Z,80.01
2023-11-05T08:45:21.187Z,82.45
2023-11-05T08:47:48.988Z,77.95
2023-11-05T08:50:16.960Z,76.40
2023-11-05T08:52:46.781Z,81.22
2023-11-05T08:55:14.855Z,76.74
2023-11-05T08:57:42.813Z,76.39
2023-11-05T09:00:14.229Z,75.68
2023-11-05T09:02:42.288Z,78.56
2023-11-05T09:05:11.794Z,75.33
2023-11-05T09:07:39.905Z,75.14
2023-11-05T09:10:10.686Z,75.32
2023-11-05T09:12:40.185Z,78.78
2023-11-05T09:15:09.783Z,78.75
2023-11-05T09:17:39.133Z,77.98
2023-11-05T09:20:10.656Z,76.58
2023-11-05T09:22:39.748Z,77.13
2023-11-05T09:25:08.711Z,78.51
2023-11-05T09:27:38.065Z,74.40
2023-11-05T09:30:11.456Z,76.39
2023-11-05T09:32:41.104Z,79.31
2023-11-05T09:35:13.514Z,78.46
2023-11-05T09:38:11.622Z,77.47
2023-11-05T09:40:39.555Z,77.43
2023-11-05T09:43:11.656Z,77.54
2023-11-05T09:45:39.587Z,75.02
2023-11-05T09:48:10.748Z,77.36
2023-11-05T09:50:39.209Z,78.66
2023-11-05T09:53:08.350Z,82.17
2023-11-05T09:55:39.065Z,84.18
2023-11-05T09:58:07.092Z,86.15
2023-11-05T10:00:35.679Z,87.68
2023-11-05T10:03:05.085Z,90.95
2023-11-05T10:05:36.042Z,90.90
2023-11-05T10:08:06.395Z,93.32
2023-11-05T10:10:35.003Z,97.04
2023-11-05T10:13:06.119Z,99.47
2023-11-05T10:15:35.017Z,100.00
2023-11-05T10:18:02.974Z,100.00
2023-11-05T10:20:31.419Z,100.00
2023-11-05T10:23:04.127Z,100.00
2023-11-05T10:25:32.272Z,100.00
2023-11-05T10:28:00.506Z,100.00
2023-11-05T10:30:31.694Z,100.00
2023-11-05T10:33:00.060Z,100.00
2023-11-05T10:35:29.236Z,100.00
2023-11-05T10:37:57.919Z,100.00
2023-11-05T10:40:27.586Z,100.00
2023-11-05T10:42:55.503Z,100.00
2023-11-05T10:45:24.455Z,100.00
2023-11-05T10:47:52.574Z,100.00
2023-11-05T10:50:21.727Z,100.00
2023-11-05T10:52:54.521Z,100.00
2023-11-05T10:55:34.561Z,100.00
2023-11-05T10:58:14.242Z,100.00
2023-11-05T11:00:53.300Z,100.00
2023-11-05T11:03:22.476Z,100.00
2023-11-05T11:06:04.058Z,100.00
2023-11-05T11:08:33.008Z,99.81
2023-11-05T11:11:25.919Z,100.00
2023-11-05T11:13:56.742Z,100.00
2023-11-05T11:16:26.425Z,100.00
2023-11-05T11:18:55.726Z,100.00
2023-11-05T11:21:25.080Z,98.61
2023-11-05T11:23:53.293Z,100.00
2023-11-05T11:26:27.248Z,96.34
2023-11-05T11:28:56.225Z,98.36
2023-11-05T11:31:24.249Z,95.07
2023-11-05T11:33:53.648Z,92.63
2023-11-05T11:36:21.692Z,92.50
2023-11-05T11:38:49.780Z,92.22
2023-11-05T11:41:17.628Z,92.97
2023-11-05T11:43:46.976Z,91.25
2023-11-05T11:46:15.253Z,91.44
2023-11-05T11:48:43.003Z,90.90
2023-11-05T11:51:12.010Z,94.34
2023-11-05T11:53:41.880Z,96.95
2023-11-05T11:56:10.310Z,100.00
2023-11-05T11:58:42.817Z,100.00
2023-11-05T12:01:17.542Z,100.00
2023-11-05T12:03:47.344Z,100.00
2023-11-05T12:06:16.129Z,100.00
2023-11-05T12:08:45.449Z,100.00
2023-11-05T12:11:20.908Z,100.00
2023-11-05T12:14:25.902Z,95.49
2023-11-05T12:16:59.955Z,96.63
2023-11-05T12:19:28.262Z,94.87
2023-11-05T12:21:56.185Z,90.17
2023-11-05T12:24:24.070Z,90.32
2023-11-05T12:26:55.593Z,89.05
2023-11-05T12:29:23.662Z,87.10
2023-11-05T12:31:51.460Z,87.03
2023-11-05T12:34:21.691Z,87.21
2023-11-05T12:36:50.427Z,83.90
2023-11-05T12:39:18.214Z,83.32
2023-11-05T12:41:46.886Z,82.02
2023-11-05T12:44:14.782Z,83.35
2023-11-05T12:46:42.622Z,82.35
2023-11-05T12:49:10.564Z,78.59
2023-11-05T12:51:39.752Z,80.16
2023-11-05T12:54:07.861Z,80.87
2023-11-05T12:56:35.620Z,78.22
2023-11-05T12:59:03.482Z,77.04
2023-11-05T13:01:31.418Z,76.67
2023-11-05T13:03:59.535Z,77.12
2023-11-05T13:06:28.487Z,75.29
2023-11-05T13:08:58.819Z,73.92
2023-11-05T13:11:26.634Z,75.44
2023-11-05T13:13:54.536Z,76.06
2023-11-05T13:16:23.168Z,77.37
2023-11-05T13:18:51.125Z,76.31
2023-11-05T13:21:19.082Z,78.48
2023-11-05T13:23:47.853Z,77.11
2023-11-05T13:26:17.687Z,77.50
2023-11-05T13:28:45.600Z,76.14
2023-11-05T13:31:13.742Z,76.61
2023-11-05T13:33:44.507Z,77.90
2023-11-05T13:36:12.302Z,79.64
2023-11-05T13:38:40.045Z,78.20
2023-11-05T13:41:08.154Z,78.50
2023-11-05T13:43:37.516Z,78.03
2023-11-05T13:46:06.197Z,76.30
2023-11-05T13:48:34.134Z,76.11
2023-11-05T13:51:02.256Z,75.53
2023-11-05T13:53:30.008Z,77.69
2023-11-05T13:55:57.827Z,77.33
2023-11-05T14:02:15.299Z,77.96
2023-11-05T14:04:43.231Z,76.12
2023-11-05T14:11:44.284Z,75.54
2023-11-05T14:21:59.187Z,74.55
2023-11-05T14:30:39.051Z,73.92
2023-11-05T14:33:22.316Z,76.48
2023-11-05T14:40:57.732Z,77.71
2023-11-05T14:43:28.028Z,76.53
2023-11-05T14:53:16.441Z,82.50
2023-11-05T14:56:33.768Z,82.60
2023-11-05T15:02:09.482Z,84.17
2023-11-05T15:05:11.790Z,83.83
2023-11-05T15:07:41.178Z,84.71
2023-11-05T15:10:37.985Z,85.82
2023-11-05T15:13:54.292Z,86.39
2023-11-05T15:30:43.388Z,87.27
2023-11-05T15:33:58.403Z,87.62
2023-11-05T15:37:10.292Z,91.63
2023-11-05T15:40:10.704Z,96.98
2023-11-05T15:46:09.183Z,99.91
2023-11-05T15:48:58.268Z,99.68
2023-11-05T15:59:38.916Z,100.00
2023-11-05T16:02:11.099Z,100.00
2023-11-05T16:05:11.230Z,100.00
2023-11-05T16:16:03.974Z,100.00
2023-11-05T16:19:54.777Z,100.00
2023-11-05T16:23:19.338Z,100.00
2023-11-05T16:25:57.469Z,100.00
2023-11-05T16:32:46.249Z,98.85
2023-11-05T16:40:23.059Z,99.06
2023-11-05T16:49:57.571Z,98.16
2023-11-05T17:11:00.521Z,98.48
2023-11-05T17:13:28.443Z,98.85
2023-11-05T17:15:56.796Z,99.74
2023-11-05T17:18:24.665Z,99.94
2023-11-05T17:20:52.643Z,100.00
2023-11-05T17:23:20.499Z,100.00
2023-11-05T17:25:48.527Z,99.71
2023-11-05T17:28:22.305Z,99.98
2023-11-05T17:30:50.583Z,99.61
2023-11-05T17:33:18.587Z,98.95
2023-11-05T17:35:46.422Z,99.23
2023-11-05T17:38:15.035Z,99.90
2023-11-05T17:40:42.934Z,99.58
2023-11-05T17:43:10.956Z,99.59
2023-11-05T17:45:41.771Z,98.61
2023-11-05T17:48:10.560Z,98.68
2023-11-05T17:50:38.797Z,99.02
2023-11-05T17:53:16.457Z,98.94
2023-11-05T17:55:44.631Z,97.37
2023-11-05T17:58:12.476Z,96.87
2023-11-05T18:00:42.203Z,96.09
2023-11-05T18:03:10.111Z,96.41
2023-11-05T18:05:39.757Z,96.78
2023-11-05T18:08:07.561Z,96.30
2023-11-05T18:10:46.635Z,96.29
2023-11-05T18:13:18.447Z,95.90
2023-11-05T18:15:48.086Z,95.83
2023-11-05T18:18:15.898Z,93.88
2023-11-05T18:20:43.743Z,94.39
2023-11-05T18:23:11.674Z,92.88
2023-11-05T18:25:39.585Z,93.14
2023-11-05T18:28:08.490Z,93.92
2023-11-05T18:30:37.221Z,93.45
2023-11-05T18:33:06.938Z,93.88
2023-11-05T18:35:34.798Z,94.58
2023-11-05T18:38:02.598Z,94.83
2023-11-05T18:40:30.582Z,93.83
2023-11-05T18:42:58.353Z,94.98
2023-11-05T18:45:26.842Z,94.46
2023-11-05T18:47:54.700Z,95.32
2023-11-05T18:50:24.008Z,94.39
2023-11-05T18:52:51.833Z,94.78
2023-11-05T18:55:26.171Z,94.17
2023-11-05T18:57:53.990Z,94.56
2023-11-05T19:00:22.247Z,94.76
2023-11-05T19:02:51.586Z,94.27
2023-11-05T19:05:19.585Z,94.63
2023-11-05T19:07:48.780Z,94.48
2023-11-05T19:10:16.656Z,94.91
2023-11-05T19:12:44.594Z,94.66
2023-11-05T19:15:12.465Z,94.83
2023-11-05T19:17:44.410Z,93.54
2023-11-05T19:20:13.609Z,94.13
2023-11-05T19:22:41.750Z,94.66
2023-11-05T19:25:12.852Z,94.80
2023-11-05T19:27:40.991Z,93.30
2023-11-05T19:30:11.361Z,93.64
2023-11-05T19:32:40.929Z,93.41
2023-11-05T19:35:09.419Z,93.40
2023-11-05T19:37:39.404Z,92.36
2023-11-05T19:40:08.924Z,91.75
2023-11-05T19:42:39.931Z,91.95
2023-11-05T19:45:09.504Z,92.71
2023-11-05T19:47:37.314Z,91.80
2023-11-05T19:50:05.872Z,92.37
2023-11-05T19:52:33.800Z,92.11
2023-11-05T19:55:00.863Z,92.58
2023-11-05T19:57:29.155Z,93.30
2023-11-05T20:00:07.244Z,92.93
2023-11-05T20:02:37.186Z,92.63
2023-11-05T20:05:05.751Z,92.79
2023-11-05T20:07:35.412Z,91.67
2023-11-05T20:10:03.584Z,91.06
2023-11-05T20:12:31.506Z,91.44
2023-11-05T20:14:59.435Z,90.17
2023-11-05T20:17:29.442Z,90.13
2023-11-05T20:19:57.258Z,89.88
2023-11-05T20:22:26.585Z,90.19
2023-11-05T20:24:54.813Z,90.52
2023-11-05T20:27:24.069Z,90.47
2023-11-05T20:29:51.987Z,89.92
2023-11-05T20:32:19.920Z,90.43
2023-11-05T20:34:49.063Z,89.59
2023-11-05T20:37:16.814Z,91.07
2023-11-05T20:39:45.083Z,91.24
2023-11-05T20:42:12.962Z,92.19
2023-11-05T20:44:41.906Z,92.51
2023-11-05T20:47:10.528Z,93.57
2023-11-05T20:49:38.406Z,94.37
2023-11-05T20:52:09.767Z,94.61
2023-11-05T20:54:38.110Z,94.46
2023-11-05T20:57:07.640Z,95.45
2023-11-05T20:59:35.454Z,95.71
2023-11-05T21:02:03.262Z,95.81
2023-11-05T21:04:31.320Z,95.63
2023-11-05T21:06:59.180Z,95.97
2023-11-05T21:09:29.465Z,95.61
2023-11-05T21:11:57.246Z,96.65
2023-11-05T21:14:25.113Z,97.22
2023-11-05T21:16:54.492Z,96.88
2023-11-05T21:19:22.799Z,97.83
2023-11-05T21:21:50.560Z,97.60
2023-11-05T21:24:18.435Z,98.78
2023-11-05T21:26:47.512Z,98.74
2023-11-05T21:29:17.134Z,99.40
2023-11-05T21:31:45.053Z,99.06
2023-11-05T21:34:12.849Z,99.27
2023-11-05T21:36:40.702Z,98.20
2023-11-05T21:39:13.477Z,98.05
2023-11-05T21:41:44.420Z,97.48
2023-11-05T21:44:13.786Z,96.83
2023-11-05T21:46:44.417Z,96.14
2023-11-05T21:49:12.278Z,96.80
2023-11-05T21:51:40.573Z,96.29
2023-11-05T21:54:10.552Z,96.76
2023-11-05T21:56:38.313Z,97.03
2023-11-05T21:59:06.142Z,96.53
2023-11-05T22:01:35.452Z,96.95
2023-11-05T22:04:04.373Z,96.93
2023-11-05T22:06:32.354Z,96.54
2023-11-05T22:09:00.132Z,95.84
2023-11-05T22:11:29.205Z,96.18
2023-11-05T22:13:57.000Z,96.01
2023-11-05T22:16:25.150Z,96.51
2023-11-05T22:18:54.341Z,94.86
2023-11-05T22:21:22.203Z,94.90
2023-11-05T22:23:50.032Z,93.22
2023-11-05T22:26:17.927Z,93.07
2023-11-05T22:28:45.826Z,91.84
2023-11-05T22:31:13.566Z,91.13
2023-11-05T22:33:42.572Z,90.11
2023-11-05T22:36:12.116Z,88.16
2023-11-05T22:38:39.892Z,88.43
2023-11-05T22:41:10.223Z,87.81
2023-11-05T22:43:38.364Z,86.88
2023-11-05T22:46:14.049Z,87.47
2023-11-05T22:49:03.273Z,85.65
2023-11-05T22:51:58.326Z,87.18
2023-11-05T22:54:28.307Z,86.71
2023-11-05T22:57:16.635Z,86.44
2023-11-05T22:59:50.214Z,85.21
2023-11-05T23:02:42.688Z,83.92
2023-11-05T23:05:19.312Z,84.40
2023-11-05T23:07:48.911Z,83.91
2023-11-05T23:10:23.596Z,82.13
2023-11-05T23:12:51.441Z,81.82
2023-11-05T23:15:50.105Z,82.07
2023-11-05T23:18:19.672Z,81.74
2023-11-05T23:20:55.561Z,81.32
2023-11-05T23:23:31.829Z,81.80
2023-11-05T23:25:59.711Z,81.74
2023-11-05T23:28:38.863Z,80.74
2023-11-05T23:31:06.784Z,80.77
2023-11-05T23:34:01.493Z,81.77
2023-11-05T23:36:29.334Z,79.25
2023-11-05T23:39:17.583Z,78.23
2023-11-05T23:41:46.327Z,79.63
2023-11-05T23:44:14.602Z,80.45
2023-11-05T23:46:42.547Z,79.83
2023-11-05T23:49:13.223Z,81.84
2023-11-05T23:51:43.336Z,79.55
2023-11-05T23:54:11.245Z,79.97
2023-11-05T23:56:40.582Z,80.67
2023-11-05T23:59:14.363Z,80.75
